Time;durP1;ratioP1;P1;durP2;ratioP2;P2;SDS_P1;SDS_P2;PMS_P1;PMS_P2;Temp;Humidity;BMP_temperature;BMP_pressure;BME280_temperature;BME280_humidity;BME280_pressure;Samples;Min_cycle;Max_cycle;Signal;HPM_P1;HPM_P2
2023/06/11 04:01:44;;;;;;;14.35;9.50;;;18.20;99.90;;;;;;5396294;23;19921;-80
2023/06/11 04:04:10;;;;;;;11.68;9.50;;;18.20;99.90;;;;;;4994655;28;20482;-80
2023/06/11 04:06:37;;;;;;;12.15;9.32;;;18.20;99.90;;;;;;4994692;28;20042;-79
2023/06/11 04:09:04;;;;;;;11.07;9.13;;;18.20;99.90;;;;;;4996190;28;20354;-78
2023/06/11 04:11:30;;;;;;;11.32;9.35;;;18.20;99.90;;;;;;4967903;28;20055;-79
2023/06/11 04:13:55;;;;;;;11.60;9.30;;;18.20;99.90;;;;;;4975018;28;20121;-80
2023/06/11 04:16:21;;;;;;;11.77;9.18;;;18.20;99.90;;;;;;4975133;28;20070;-79
2023/06/11 04:18:47;;;;;;;15.50;10.00;;;18.20;99.90;;;;;;4975254;28;20117;-79
2023/06/11 04:21:13;;;;;;;13.48;9.27;;;18.20;99.90;;;;;;4975660;28;20039;-79
2023/06/11 04:23:40;;;;;;;12.85;9.15;;;18.20;99.90;;;;;;4976520;28;20039;-78
2023/06/11 04:26:09;;;;;;;12.25;9.30;;;18.20;99.90;;;;;;4974891;28;20047;-79
2023/06/11 04:28:36;;;;;;;11.57;10.02;;;18.20;99.90;;;;;;4975311;28;20047;-79
2023/06/11 04:31:02;;;;;;;12.65;9.27;;;18.20;99.90;;;;;;4976073;28;20042;-79
2023/06/11 04:33:36;;;;;;;12.85;9.80;;;18.20;99.90;;;;;;4974974;28;20043;-80
2023/06/11 04:36:07;;;;;;;12.90;9.75;;;18.20;99.90;;;;;;4976277;28;20047;-79
2023/06/11 04:38:33;;;;;;;13.77;9.48;;;18.20;99.90;;;;;;4958525;28;20062;-79
2023/06/11 04:41:00;;;;;;;11.73;10.00;;;18.20;99.90;;;;;;4974382;28;20042;-78
2023/06/11 04:43:26;;;;;;;16.65;9.23;;;18.20;99.90;;;;;;4974322;28;20043;-80
2023/06/11 04:45:57;;;;;;;13.80;9.88;;;18.20;99.90;;;;;;4974364;28;20051;-79
2023/06/11 04:48:25;;;;;;;14.65;9.75;;;18.20;99.90;;;;;;4974372;28;20043;-79
2023/06/11 04:50:51;;;;;;;12.43;9.60;;;18.20;99.90;;;;;;4975270;28;20049;-80
2023/06/11 04:53:21;;;;;;;14.05;9.55;;;18.20;99.90;;;;;;4974238;28;20398;-79
2023/06/11 04:55:49;;;;;;;13.05;9.85;;;18.30;99.90;;;;;;4973963;28;20107;-79
2023/06/11 04:58:15;;;;;;;12.48;10.00;;;18.30;99.90;;;;;;4975375;28;20042;-79
2023/06/11 05:00:42;;;;;;;10.60;9.30;;;18.30;99.90;;;;;;4957680;28;20046;-79
2023/06/11 05:03:08;;;;;;;11.45;9.98;;;18.40;99.90;;;;;;4973939;28;20038;-79
2023/06/11 05:05:34;;;;;;;14.00;9.80;;;18.40;99.90;;;;;;4974959;28;20487;-78
2023/06/11 05:08:00;;;;;;;12.73;10.38;;;18.50;99.90;;;;;;4957819;28;20498;-79
2023/06/11 05:10:25;;;;;;;14.25;10.43;;;18.50;99.90;;;;;;4973733;28;20047;-80
2023/06/11 05:12:51;;;;;;;13.27;9.88;;;18.50;99.90;;;;;;4973654;28;20121;-80
2023/06/11 05:15:17;;;;;;;14.73;10.38;;;18.60;99.90;;;;;;4973761;28;20089;-80
2023/06/11 05:17:42;;;;;;;12.73;9.70;;;18.60;99.90;;;;;;4973908;28;20047;-79
2023/06/11 05:20:09;;;;;;;12.90;9.63;;;18.60;99.90;;;;;;4973639;28;20069;-79
2023/06/11 05:22:34;;;;;;;11.35;9.70;;;18.70;99.90;;;;;;4974961;28;20050;-79
2023/06/11 05:25:00;;;;;;;13.70;10.30;;;18.70;99.90;;;;;;4973411;28;20054;-78
2023/06/11 05:27:29;;;;;;;13.32;10.10;;;18.70;99.90;;;;;;4974706;28;20049;-79
2023/06/11 05:29:55;;;;;;;15.80;9.85;;;18.80;99.90;;;;;;4975223;28;20047;-78
2023/06/11 05:32:21;;;;;;;15.70;10.00;;;18.80;99.90;;;;;;4974695;28;20509;-78
2023/06/11 05:34:49;;;;;;;11.20;9.55;;;18.80;99.90;;;;;;4975198;28;20038;-80
2023/06/11 05:37:15;;;;;;;11.60;10.15;;;18.90;99.90;;;;;;4973699;28;20051;-79
2023/06/11 05:39:41;;;;;;;11.30;10.13;;;18.90;99.90;;;;;;4973580;28;20089;-79
2023/06/11 05:42:07;;;;;;;11.20;9.95;;;18.90;99.90;;;;;;4974849;28;20452;-78
2023/06/11 05:44:33;;;;;;;15.07;9.93;;;19.00;99.90;;;;;;4973676;28;20187;-79
2023/06/11 05:46:58;;;;;;;12.18;10.57;;;19.00;99.90;;;;;;4973418;28;20502;-79
2023/06/11 05:49:24;;;;;;;13.18;10.48;;;19.10;99.90;;;;;;4973930;28;20125;-78
2023/06/11 05:51:50;;;;;;;12.02;10.18;;;19.10;99.90;;;;;;4974704;28;20459;-78
2023/06/11 05:54:16;;;;;;;14.85;10.43;;;19.10;99.90;;;;;;4973396;28;20093;-79
2023/06/11 05:56:41;;;;;;;13.15;10.27;;;19.20;99.90;;;;;;4974036;28;20042;-80
2023/06/11 05:59:07;;;;;;;14.75;10.60;;;19.20;99.90;;;;;;4974452;28;20483;-80
2023/06/11 06:01:33;;;;;;;12.38;10.07;;;19.30;99.90;;;;;;4975879;28;20046;-80
2023/06/11 06:03:59;;;;;;;13.32;10.25;;;19.30;99.90;;;;;;4977010;28;20042;-80
2023/06/11 06:06:25;;;;;;;13.38;10.75;;;19.40;99.90;;;;;;4977147;28;20121;-79
2023/06/11 06:08:51;;;;;;;12.20;10.32;;;19.40;99.90;;;;;;4977147;28;20054;-79
2023/06/11 06:11:17;;;;;;;11.75;10.05;;;19.50;99.90;;;;;;4978478;28;20039;-79
2023/06/11 06:13:43;;;;;;;13.48;9.70;;;19.50;99.90;;;;;;4977169;28;20046;-79
2023/06/11 06:16:09;;;;;;;11.63;9.73;;;19.50;99.90;;;;;;4977004;28;20074;-80
2023/06/11 06:18:35;;;;;;;14.18;10.52;;;19.60;99.90;;;;;;4977679;28;20497;-79
2023/06/11 06:21:00;;;;;;;14.27;10.65;;;19.70;99.90;;;;;;4976848;28;20633;-79
2023/06/11 06:23:26;;;;;;;12.65;10.35;;;19.70;99.90;;;;;;4977052;28;20129;-79
2023/06/11 06:25:52;;;;;;;13.25;10.00;;;19.80;99.90;;;;;;4976759;28;20042;-79
2023/06/11 06:28:17;;;;;;;11.73;9.90;;;19.80;99.90;;;;;;4976794;28;20046;-79
2023/06/11 06:30:43;;;;;;;13.00;10.15;;;19.90;99.90;;;;;;4977797;28;20387;-78
2023/06/11 06:33:10;;;;;;;12.20;10.02;;;19.90;99.90;;;;;;4976531;28;20400;-78
2023/06/11 06:35:35;;;;;;;16.48;10.25;;;20.00;99.90;;;;;;4979943;28;20145;-77
2023/06/11 06:38:01;;;;;;;16.98;10.48;;;20.10;99.90;;;;;;4985087;28;20046;-75
2023/06/11 06:40:27;;;;;;;11.75;9.98;;;20.10;99.90;;;;;;4985704;28;20047;-77
2023/06/11 06:42:52;;;;;;;14.45;9.93;;;20.20;99.90;;;;;;4978281;28;20047;-78
2023/06/11 06:45:18;;;;;;;10.75;8.95;;;20.30;99.90;;;;;;4977256;28;20051;-79
2023/06/11 06:47:43;;;;;;;11.60;9.70;;;20.30;99.90;;;;;;4980558;28;20047;-76
2023/06/11 06:50:10;;;;;;;9.75;8.73;;;20.40;99.90;;;;;;4979391;28;20046;-78
2023/06/11 06:52:36;;;;;;;11.00;9.20;;;20.50;99.90;;;;;;4976524;28;20047;-77
2023/06/11 06:55:01;;;;;;;15.20;9.77;;;20.50;99.90;;;;;;4976453;28;20049;-78
2023/06/11 06:57:27;;;;;;;12.48;9.38;;;20.60;99.90;;;;;;4978062;28;20035;-78
2023/06/11 06:59:52;;;;;;;12.48;9.13;;;20.70;99.90;;;;;;4977682;28;20109;-78
2023/06/11 07:02:18;;;;;;;12.52;9.35;;;20.70;99.90;;;;;;4976421;28;20074;-79
2023/06/11 07:04:44;;;;;;;10.05;8.65;;;20.90;99.90;;;;;;4976113;28;20133;-79
2023/06/11 07:07:09;;;;;;;11.07;9.43;;;20.90;99.90;;;;;;4978147;28;20118;-79
2023/06/11 07:09:35;;;;;;;12.18;8.98;;;21.00;99.90;;;;;;4977192;28;20047;-78
2023/06/11 07:12:01;;;;;;;11.57;9.30;;;21.10;99.90;;;;;;4977469;28;20075;-78
2023/06/11 07:14:26;;;;;;;12.55;9.05;;;21.10;99.90;;;;;;4976417;28;20082;-78
2023/06/11 07:16:52;;;;;;;13.05;9.07;;;21.20;99.90;;;;;;4975987;28;20124;-79
2023/06/11 07:19:17;;;;;;;9.75;8.75;;;21.30;99.90;;;;;;4977444;28;20121;-80
2023/06/11 07:21:43;;;;;;;12.52;9.07;;;21.30;99.90;;;;;;4977142;28;20154;-78
2023/06/11 07:24:09;;;;;;;11.38;9.00;;;21.40;99.90;;;;;;4977088;28;20046;-79
2023/06/11 07:26:34;;;;;;;11.40;8.73;;;21.60;99.90;;;;;;4977310;28;20390;-80
2023/06/11 07:29:00;;;;;;;16.23;9.27;;;21.60;99.90;;;;;;4975817;28;20402;-80
2023/06/11 07:31:26;;;;;;;13.20;9.20;;;21.70;99.90;;;;;;4977091;28;20038;-77
2023/06/11 07:33:52;;;;;;;10.98;8.70;;;21.80;99.90;;;;;;4975637;28;20047;-78
2023/06/11 07:36:18;;;;;;;10.20;8.80;;;21.90;99.90;;;;;;4976001;28;20178;-79
2023/06/11 07:38:44;;;;;;;13.13;8.65;;;22.00;99.90;;;;;;4975359;28;20074;-78
2023/06/11 07:41:11;;;;;;;9.85;8.45;;;22.10;99.90;;;;;;4975444;28;20066;-79
2023/06/11 07:43:36;;;;;;;15.20;9.10;;;22.20;99.90;;;;;;4975832;28;20046;-82
2023/06/11 07:46:03;;;;;;;17.48;9.05;;;22.30;99.90;;;;;;4975273;28;20434;-79
2023/06/11 07:48:30;;;;;;;10.80;9.13;;;22.30;99.90;;;;;;4975693;28;20478;-78
2023/06/11 07:50:56;;;;;;;11.05;8.80;;;22.50;99.90;;;;;;4976680;28;20430;-80
2023/06/11 07:53:22;;;;;;;12.68;8.95;;;22.50;99.90;;;;;;4975294;28;20125;-79
2023/06/11 07:55:54;;;;;;;10.38;8.73;;;22.60;99.90;;;;;;4975395;28;20121;-78
2023/06/11 07:58:20;;;;;;;9.48;8.00;;;22.80;99.90;;;;;;4976400;28;20471;-78
2023/06/11 08:00:45;;;;;;;10.98;8.45;;;22.80;99.90;;;;;;4975396;28;20046;-79
2023/06/11 08:03:11;;;;;;;12.00;9.27;;;22.90;99.90;;;;;;4975452;28;20405;-78
2023/06/11 08:05:37;;;;;;;10.77;7.90;;;23.00;99.90;;;;;;4975104;28;20083;-80
2023/06/11 08:08:03;;;;;;;13.98;8.70;;;23.10;99.90;;;;;;4974989;28;20402;-78
2023/06/11 08:10:28;;;;;;;10.38;8.45;;;23.10;99.90;;;;;;4975652;28;20118;-79
2023/06/11 08:12:54;;;;;;;10.70;8.60;;;23.20;99.90;;;;;;4976174;28;20166;-79
2023/06/11 08:15:20;;;;;;;9.30;8.00;;;23.30;99.90;;;;;;4974939;28;20418;-78
2023/06/11 08:17:46;;;;;;;11.00;8.68;;;23.40;99.90;;;;;;4959642;28;20042;-79
2023/06/11 08:20:11;;;;;;;13.55;8.38;;;23.60;99.90;;;;;;4974674;28;20402;-78
2023/06/11 08:22:39;;;;;;;12.07;8.52;;;23.70;99.90;;;;;;4975338;28;20190;-80
2023/06/11 08:25:05;;;;;;;10.57;8.40;;;23.90;99.90;;;;;;4974546;28;20046;-79
2023/06/11 08:27:30;;;;;;;10.18;7.93;;;23.90;99.90;;;;;;4974660;28;20482;-80
2023/06/11 08:29:56;;;;;;;8.77;7.63;;;24.00;99.90;;;;;;4974569;28;20050;-79
2023/06/11 08:32:22;;;;;;;10.25;8.20;;;24.10;99.90;;;;;;4976075;28;20038;-78
2023/06/11 08:34:47;;;;;;;10.27;8.10;;;24.20;99.90;;;;;;4976189;28;20098;-78
2023/06/11 08:37:13;;;;;;;9.82;8.32;;;24.20;99.90;;;;;;4958320;28;20050;-78
2023/06/11 08:39:39;;;;;;;12.32;7.78;;;24.30;99.90;;;;;;4974673;28;20047;-79
2023/06/11 08:42:05;;;;;;;15.25;7.78;;;24.40;99.90;;;;;;4975767;28;20122;-80
2023/06/11 08:44:31;;;;;;;10.82;7.60;;;24.50;99.90;;;;;;4958483;28;20047;-81
2023/06/11 08:47:01;;;;;;;11.07;7.93;;;24.60;99.90;;;;;;4974237;28;20039;-77
2023/06/11 08:49:28;;;;;;;9.27;8.18;;;24.80;99.90;;;;;;4974320;28;20046;-79
2023/06/11 08:51:57;;;;;;;9.63;7.85;;;24.90;99.90;;;;;;4974259;28;20050;-80
2023/06/11 08:54:24;;;;;;;9.95;7.68;;;25.00;99.90;;;;;;4958158;28;20046;-79
2023/06/11 08:56:50;;;;;;;10.50;7.88;;;25.10;99.90;;;;;;4974565;28;20090;-80
2023/06/11 08:59:16;;;;;;;12.00;7.65;;;25.20;99.90;;;;;;4974273;28;20529;-79
2023/06/11 09:01:41;;;;;;;11.02;8.27;;;25.30;99.90;;;;;;4974098;28;20046;-79
2023/06/11 09:04:07;;;;;;;10.00;7.75;;;25.40;99.90;;;;;;4974058;28;20089;-80
2023/06/11 09:06:34;;;;;;;9.75;7.32;;;25.50;99.90;;;;;;4975869;28;20046;-79
2023/06/11 09:09:07;;;;;;;10.55;7.47;;;25.70;99.90;;;;;;4974406;28;20039;-79
2023/06/11 09:11:33;;;;;;;11.02;8.13;;;25.80;99.90;;;;;;4974358;28;20122;-79
2023/06/11 09:13:58;;;;;;;13.88;7.68;;;25.90;99.90;;;;;;4974164;28;20130;-79
2023/06/11 09:16:24;;;;;;;10.82;7.32;;;25.90;99.90;;;;;;4974473;28;20039;-77
2023/06/11 09:18:50;;;;;;;9.70;7.30;;;26.00;99.90;;;;;;4974344;28;20034;-80
2023/06/11 09:21:16;;;;;;;8.82;7.70;;;26.10;99.90;;;;;;4974173;28;20054;-79
2023/06/11 09:23:43;;;;;;;9.32;7.65;;;26.30;99.90;;;;;;4974235;28;20463;-80
2023/06/11 09:26:08;;;;;;;11.20;7.75;;;26.40;99.90;;;;;;4973702;28;20039;-78
2023/06/11 09:28:35;;;;;;;8.77;7.40;;;26.50;99.90;;;;;;4975320;28;20039;-78
2023/06/11 09:31:03;;;;;;;11.32;7.07;;;26.70;99.90;;;;;;4975578;28;20046;-79
2023/06/11 09:33:31;;;;;;;10.73;7.60;;;26.70;99.90;;;;;;4974591;28;20112;-78
2023/06/11 09:35:57;;;;;;;9.75;7.20;;;26.90;99.90;;;;;;4975397;28;20096;-79
2023/06/11 09:38:23;;;;;;;8.70;7.00;;;27.00;99.90;;;;;;4973881;28;20079;-79
2023/06/11 09:40:55;;;;;;;9.07;6.68;;;27.10;99.90;;;;;;4973891;28;20566;-79
2023/06/11 09:43:22;;;;;;;12.30;7.20;;;27.20;99.90;;;;;;4958182;28;20042;-79
2023/06/11 09:45:57;;;;;;;8.88;7.15;;;27.30;99.90;;;;;;4974208;28;20549;-79
2023/06/11 09:48:24;;;;;;;7.90;6.65;;;27.40;99.90;;;;;;4973893;28;20074;-79
2023/06/11 09:50:51;;;;;;;10.07;7.00;;;27.50;99.90;;;;;;4975166;28;20039;-79
2023/06/11 09:53:22;;;;;;;8.45;6.80;;;27.60;99.90;;;;;;4975448;28;20053;-79
2023/06/11 09:55:50;;;;;;;8.35;6.72;;;27.70;99.90;;;;;;4973910;28;20045;-77
2023/06/11 09:58:22;;;;;;;7.68;6.45;;;27.80;99.90;;;;;;4975094;28;20058;-79
2023/06/11 10:01:00;;;;;;;9.90;6.88;;;27.90;99.90;;;;;;4973782;28;20054;-79
2023/06/11 10:03:26;;;;;;;6.78;6.07;;;27.90;99.90;;;;;;4974817;28;20053;-79
2023/06/11 10:05:53;;;;;;;8.75;6.25;;;28.00;99.90;;;;;;4974724;28;20035;-80
2023/06/11 10:08:22;;;;;;;9.68;6.40;;;28.10;99.90;;;;;;4975473;28;20132;-79
2023/06/11 10:10:55;;;;;;;10.10;7.15;;;28.10;99.90;;;;;;4974875;28;20039;-79
2023/06/11 10:13:35;;;;;;;10.20;6.30;;;28.20;99.90;;;;;;4975120;28;20059;-78
2023/06/11 10:16:08;;;;;;;8.77;6.15;;;28.30;99.90;;;;;;4973641;28;20042;-79
2023/06/11 10:18:34;;;;;;;8.07;6.00;;;28.40;99.90;;;;;;4973819;28;20051;-78
2023/06/11 10:21:04;;;;;;;8.48;5.85;;;28.50;99.90;;;;;;4974696;28;20402;-79
2023/06/11 10:23:37;;;;;;;9.38;6.88;;;28.60;99.90;;;;;;4973675;28;20066;-80
2023/06/11 10:26:04;;;;;;;9.15;6.43;;;28.80;99.90;;;;;;4957395;28;20058;-79
2023/06/11 10:28:48;;;;;;;9.45;5.93;;;28.90;99.90;;;;;;4973194;28;20482;-78
2023/06/11 10:31:25;;;;;;;6.90;6.20;;;29.00;99.90;;;;;;4973502;28;20038;-78
2023/06/11 10:33:51;;;;;;;8.05;6.03;;;29.00;99.90;;;;;;4974629;28;20050;-79
2023/06/11 10:36:27;;;;;;;8.00;6.10;;;29.00;99.90;;;;;;4973662;28;20047;-78
2023/06/11 10:39:25;;;;;;;7.78;5.80;;;29.10;99.90;;;;;;4973155;28;20121;-78
2023/06/11 10:42:01;;;;;;;7.68;6.15;;;29.00;99.90;;;;;;4973971;28;20126;-78
2023/06/11 10:44:29;;;;;;;10.40;5.50;;;29.20;99.90;;;;;;4974844;28;20046;-80
2023/06/11 10:46:55;;;;;;;7.80;6.13;;;29.30;99.90;;;;;;4975189;28;20046;-79
2023/06/11 10:49:28;;;;;;;8.85;5.72;;;29.40;99.50;;;;;;4976711;28;20122;-79
2023/06/11 10:51:54;;;;;;;10.60;5.93;;;29.50;99.20;;;;;;4976787;28;20038;-79
2023/06/11 10:54:35;;;;;;;11.65;5.72;;;29.60;99.00;;;;;;4976475;28;20047;-77
2023/06/11 10:57:01;;;;;;;8.30;5.78;;;29.70;98.80;;;;;;4976201;28;20490;-79
2023/06/11 10:59:28;;;;;;;9.43;5.63;;;29.80;98.50;;;;;;4977688;28;20093;-78
2023/06/11 11:01:54;;;;;;;9.88;5.63;;;29.80;98.30;;;;;;4977226;28;20046;-79
2023/06/11 11:04:21;;;;;;;10.77;5.55;;;29.90;98.50;;;;;;4976109;28;20096;-78
2023/06/11 11:06:48;;;;;;;7.22;5.03;;;29.90;97.30;;;;;;4975988;28;20049;-79
2023/06/11 11:09:21;;;;;;;6.88;5.60;;;29.90;95.90;;;;;;4977417;28;20072;-78
2023/06/11 11:11:47;;;;;;;6.72;5.45;;;29.90;95.50;;;;;;4977227;28;20042;-77
2023/06/11 11:14:14;;;;;;;8.18;5.55;;;29.90;95.50;;;;;;4977564;28;20046;-78
2023/06/11 11:16:40;;;;;;;6.45;5.60;;;29.90;94.70;;;;;;4977435;28;20047;-78
2023/06/11 11:19:05;;;;;;;6.63;5.45;;;29.90;94.70;;;;;;4975827;28;20402;-78
2023/06/11 11:21:31;;;;;;;7.53;4.97;;;29.80;93.90;;;;;;4975582;28;20070;-79
2023/06/11 11:23:58;;;;;;;7.65;5.40;;;29.80;93.70;;;;;;4976116;28;20046;-78
2023/06/11 11:26:25;;;;;;;5.80;5.20;;;29.90;94.10;;;;;;4975648;28;20074;-79
2023/06/11 11:28:51;;;;;;;8.05;5.15;;;30.00;93.60;;;;;;4977219;28;20042;-78
2023/06/11 11:31:21;;;;;;;6.00;5.25;;;30.10;93.10;;;;;;4959493;28;20482;-78
2023/06/11 11:33:50;;;;;;;6.30;5.05;;;30.20;93.10;;;;;;4977066;28;20043;-79
2023/06/11 11:36:16;;;;;;;5.88;4.85;;;30.30;91.80;;;;;;4975688;28;20439;-78
2023/06/11 11:38:41;;;;;;;7.88;4.85;;;30.40;91.00;;;;;;4977083;28;20046;-78
2023/06/11 11:41:12;;;;;;;6.55;4.60;;;30.50;90.70;;;;;;4975439;28;20039;-80
2023/06/11 11:43:41;;;;;;;6.45;4.80;;;30.60;89.70;;;;;;4975626;28;20047;-78
2023/06/11 11:46:18;;;;;;;6.28;5.00;;;30.70;88.00;;;;;;4959678;28;20382;-79
2023/06/11 11:48:44;;;;;;;8.05;4.63;;;30.70;86.50;;;;;;4975434;28;20093;-79
2023/06/11 11:51:11;;;;;;;5.45;4.72;;;30.70;87.20;;;;;;4976391;28;20042;-79
2023/06/11 11:53:37;;;;;;;7.78;5.13;;;30.80;84.50;;;;;;4976867;28;20050;-79
2023/06/11 11:56:04;;;;;;;7.07;4.78;;;30.60;84.00;;;;;;4975238;28;20097;-79
2023/06/11 11:58:38;;;;;;;5.82;4.70;;;30.50;83.90;;;;;;4976593;28;20046;-78
2023/06/11 12:01:08;;;;;;;6.43;4.95;;;30.50;82.90;;;;;;4975163;28;20055;-77
2023/06/11 12:03:39;;;;;;;8.55;4.53;;;30.20;82.40;;;;;;4975558;28;20046;-77
2023/06/11 12:06:06;;;;;;;8.60;4.63;;;30.10;80.80;;;;;;4977068;28;20047;-79
2023/06/11 12:08:34;;;;;;;17.05;5.05;;;30.10;79.70;;;;;;4975623;28;20034;-78
2023/06/11 12:11:01;;;;;;;11.60;5.45;;;30.00;79.60;;;;;;4975103;28;20065;-79
2023/06/11 12:13:27;;;;;;;6.75;4.57;;;30.00;77.80;;;;;;4975290;28;20054;-79
2023/06/11 12:15:53;;;;;;;7.47;4.85;;;29.90;76.70;;;;;;4974699;28;20047;-78
2023/06/11 12:18:19;;;;;;;7.80;4.78;;;29.90;76.40;;;;;;4974971;28;20127;-78
2023/06/11 12:20:45;;;;;;;8.38;5.03;;;29.70;76.40;;;;;;4959100;28;20476;-79
2023/06/11 12:23:10;;;;;;;7.47;5.03;;;29.60;76.20;;;;;;4975079;28;20109;-78
2023/06/11 12:25:36;;;;;;;7.18;4.65;;;29.90;78.10;;;;;;4975258;28;20486;-79
2023/06/11 12:28:02;;;;;;;7.57;4.93;;;30.10;78.40;;;;;;4976926;28;20042;-79
2023/06/11 12:30:32;;;;;;;9.23;4.65;;;30.20;78.00;;;;;;4976031;28;20126;-78
2023/06/11 12:32:58;;;;;;;6.35;5.03;;;30.20;76.60;;;;;;4976424;28;20502;-79
2023/06/11 12:35:24;;;;;;;9.85;5.22;;;30.20;76.90;;;;;;4976500;28;20054;-77
2023/06/11 12:37:50;;;;;;;6.68;4.88;;;30.30;76.60;;;;;;4974877;28;20082;-79
2023/06/11 12:40:16;;;;;;;7.57;4.53;;;30.20;74.60;;;;;;4974657;28;20480;-80
2023/06/11 12:42:43;;;;;;;8.35;5.10;;;30.00;74.40;;;;;;4975629;28;20077;-78
2023/06/11 12:45:09;;;;;;;8.93;5.30;;;29.80;73.70;;;;;;4975099;28;20050;-79
2023/06/11 12:47:36;;;;;;;7.90;5.47;;;29.90;73.90;;;;;;4975296;28;20039;-78
2023/06/11 12:50:02;;;;;;;8.50;4.78;;;30.00;74.00;;;;;;4977080;28;20035;-79
2023/06/11 12:52:28;;;;;;;9.32;5.38;;;30.10;74.40;;;;;;4975131;28;20050;-80
2023/06/11 12:54:54;;;;;;;6.45;5.03;;;30.00;73.00;;;;;;4975309;28;20101;-80
2023/06/11 12:57:19;;;;;;;9.23;5.18;;;30.00;73.30;;;;;;4976251;28;20038;-78
2023/06/11 12:59:45;;;;;;;9.50;4.88;;;29.90;72.50;;;;;;4974480;28;20398;-78
2023/06/11 13:02:14;;;;;;;6.03;4.85;;;29.60;72.20;;;;;;4973975;28;20050;-78
2023/06/11 13:04:44;;;;;;;6.40;4.63;;;29.70;71.40;;;;;;4974543;28;20060;-79
2023/06/11 13:07:09;;;;;;;8.55;5.20;;;29.90;70.70;;;;;;4974848;28;20043;-78
2023/06/11 13:09:35;;;;;;;6.30;4.93;;;30.00;71.30;;;;;;4974091;28;20125;-77
2023/06/11 13:12:02;;;;;;;7.97;5.05;;;29.90;71.70;;;;;;4974486;28;20050;-79
2023/06/11 13:14:28;;;;;;;9.70;5.10;;;29.90;72.00;;;;;;4975505;28;20058;-79
2023/06/11 13:16:54;;;;;;;7.32;4.97;;;30.10;72.10;;;;;;4958305;28;20050;-78
2023/06/11 13:19:21;;;;;;;8.98;4.90;;;30.30;70.70;;;;;;4974697;28;20427;-79
2023/06/11 13:21:46;;;;;;;7.35;4.90;;;30.50;70.30;;;;;;4975429;28;20054;-79
2023/06/11 13:24:12;;;;;;;7.28;5.00;;;30.60;70.00;;;;;;4975519;28;20038;-77
2023/06/11 13:26:38;;;;;;;10.90;5.15;;;30.60;69.50;;;;;;4975498;28;20046;-79
2023/06/11 13:29:04;;;;;;;5.95;5.03;;;30.50;68.20;;;;;;4974175;28;20090;-78
2023/06/11 13:31:30;;;;;;;7.55;4.93;;;30.30;68.20;;;;;;4973765;28;20610;-77
2023/06/11 13:33:58;;;;;;;6.82;5.28;;;29.90;67.90;;;;;;4973914;28;20049;-78
2023/06/11 13:36:23;;;;;;;7.40;5.13;;;29.60;68.70;;;;;;4974229;28;20053;-79
2023/06/11 13:38:49;;;;;;;6.35;5.07;;;29.40;68.60;;;;;;4974310;28;20046;-77
2023/06/11 13:41:15;;;;;;;6.78;4.88;;;29.20;69.00;;;;;;4974089;28;20089;-78
2023/06/11 13:43:40;;;;;;;8.73;5.20;;;29.40;69.70;;;;;;4974641;28;20054;-77
2023/06/11 13:46:06;;;;;;;7.50;5.43;;;29.70;68.90;;;;;;4973912;28;20097;-78
2023/06/11 13:48:32;;;;;;;7.28;4.70;;;30.00;69.20;;;;;;4973694;28;20061;-78
2023/06/11 13:50:58;;;;;;;8.45;4.97;;;30.20;69.30;;;;;;4975201;28;20035;-78
2023/06/11 13:53:23;;;;;;;8.05;5.00;;;30.40;68.30;;;;;;4973719;28;20053;-78
2023/06/11 13:55:50;;;;;;;7.78;4.75;;;30.50;67.60;;;;;;4975094;28;20031;-77
2023/06/11 13:58:16;;;;;;;9.55;5.05;;;30.40;66.80;;;;;;4973881;28;20090;-79
2023/06/11 14:00:43;;;;;;;7.45;4.85;;;30.50;66.70;;;;;;4974319;28;20074;-78
2023/06/11 14:03:09;;;;;;;10.43;5.00;;;30.60;65.90;;;;;;4975310;28;20051;-76
2023/06/11 14:05:35;;;;;;;7.78;4.93;;;30.80;66.40;;;;;;4974906;28;20406;-76
2023/06/11 14:08:01;;;;;;;6.35;4.93;;;30.90;66.70;;;;;;4975932;28;20035;-77
2023/06/11 14:10:27;;;;;;;6.15;4.72;;;31.00;66.40;;;;;;4974009;28;20053;-78
2023/06/11 14:12:53;;;;;;;6.40;5.00;;;31.10;66.10;;;;;;4958049;28;20042;-76
2023/06/11 14:15:18;;;;;;;6.90;5.50;;;31.20;65.10;;;;;;4975649;28;20403;-78
2023/06/11 14:17:46;;;;;;;7.93;5.22;;;31.30;66.00;;;;;;4974402;28;20039;-77
2023/06/11 14:20:13;;;;;;;7.60;4.97;;;31.50;66.90;;;;;;4973625;28;20053;-78
2023/06/11 14:22:39;;;;;;;10.18;5.55;;;31.50;65.50;;;;;;4977378;28;20493;-78
2023/06/11 14:25:05;;;;;;;7.05;5.22;;;31.60;65.60;;;;;;4979568;28;20390;-78
2023/06/11 14:27:32;;;;;;;7.53;5.43;;;31.50;66.20;;;;;;4978322;28;20038;-79
2023/06/11 14:29:58;;;;;;;8.32;5.50;;;31.50;66.40;;;;;;4962652;28;20074;-78
2023/06/11 14:32:26;;;;;;;6.57;5.78;;;31.60;66.70;;;;;;4978212;28;20042;-78
2023/06/11 14:34:52;;;;;;;11.38;5.32;;;31.80;68.00;;;;;;4977899;28;20039;-78
2023/06/11 14:37:17;;;;;;;11.55;5.50;;;31.90;67.60;;;;;;4978650;28;20059;-78
2023/06/11 14:39:43;;;;;;;10.27;5.28;;;32.00;66.90;;;;;;4977751;28;20413;-78
2023/06/11 14:42:10;;;;;;;9.27;5.60;;;32.00;65.60;;;;;;4978075;28;20051;-79
2023/06/11 14:44:36;;;;;;;11.70;6.22;;;32.10;65.60;;;;;;4960985;28;20074;-79
2023/06/11 14:47:02;;;;;;;8.02;5.32;;;31.80;64.90;;;;;;4977380;28;20042;-79
2023/06/11 14:49:28;;;;;;;10.25;5.85;;;31.40;64.60;;;;;;4960788;28;20047;-79
2023/06/11 14:51:54;;;;;;;9.00;5.90;;;31.10;64.50;;;;;;4977084;28;20066;-79
2023/06/11 14:54:19;;;;;;;7.70;5.82;;;30.70;64.60;;;;;;4978449;28;20113;-79
2023/06/11 14:56:45;;;;;;;11.70;6.05;;;30.40;64.80;;;;;;4978285;28;20066;-79
2023/06/11 14:59:11;;;;;;;12.48;10.40;;;30.10;65.40;;;;;;4978555;28;20446;-79
2023/06/11 15:01:40;;;;;;;10.23;6.85;;;29.90;66.50;;;;;;4978230;28;20398;-78
2023/06/11 15:04:05;;;;;;;9.30;7.07;;;29.80;67.00;;;;;;4976898;28;20043;-79
2023/06/11 15:06:33;;;;;;;6.13;5.35;;;29.90;67.60;;;;;;4978272;28;20089;-77
2023/06/11 15:08:58;;;;;;;8.45;5.93;;;30.10;68.00;;;;;;4976800;28;20066;-78
2023/06/11 15:11:24;;;;;;;7.88;5.70;;;30.20;67.70;;;;;;4976834;28;20475;-78
2023/06/11 15:13:50;;;;;;;7.43;5.10;;;30.30;66.50;;;;;;4978315;28;20360;-77
2023/06/11 15:16:15;;;;;;;7.90;5.70;;;30.50;66.50;;;;;;4976892;28;20447;-77
2023/06/11 15:18:41;;;;;;;9.00;5.60;;;30.50;67.20;;;;;;4975973;28;20133;-79
2023/06/11 15:21:07;;;;;;;7.63;6.05;;;30.40;67.00;;;;;;4976179;28;20070;-78
2023/06/11 15:23:32;;;;;;;10.02;5.70;;;30.60;67.40;;;;;;4976312;28;20144;-77
2023/06/11 15:25:58;;;;;;;8.07;6.22;;;30.70;68.10;;;;;;4975690;28;20505;-78
2023/06/11 15:28:24;;;;;;;13.45;5.90;;;30.70;67.30;;;;;;4975681;28;20047;-77
2023/06/11 15:30:50;;;;;;;8.43;5.60;;;30.60;67.70;;;;;;4976974;28;20491;-78
2023/06/11 15:33:17;;;;;;;11.98;5.80;;;30.40;67.30;;;;;;4977032;28;20039;-79
2023/06/11 15:35:43;;;;;;;9.10;5.43;;;30.20;67.70;;;;;;4977124;28;20038;-80
2023/06/11 15:38:09;;;;;;;10.27;5.60;;;30.20;68.10;;;;;;4975832;28;20039;-77
2023/06/11 15:40:34;;;;;;;9.32;5.38;;;30.30;68.40;;;;;;4976793;28;20047;-77
2023/06/11 15:43:00;;;;;;;9.45;5.80;;;30.30;67.80;;;;;;4977129;28;20045;-78
2023/06/11 15:45:25;;;;;;;10.18;5.80;;;30.40;67.80;;;;;;4975598;28;20053;-78
2023/06/11 15:47:51;;;;;;;7.47;5.38;;;30.60;67.60;;;;;;4975846;28;20065;-78
2023/06/11 15:50:17;;;;;;;7.78;5.60;;;30.60;66.90;;;;;;4975552;28;20510;-78
2023/06/11 15:52:43;;;;;;;10.20;5.60;;;30.70;66.30;;;;;;4959530;28;20410;-78
2023/06/11 15:55:11;;;;;;;8.40;5.78;;;30.70;65.30;;;;;;4975278;28;20072;-77
2023/06/11 15:57:36;;;;;;;8.68;5.63;;;30.70;66.10;;;;;;4976897;28;20045;-78
2023/06/11 16:00:03;;;;;;;10.30;6.13;;;30.80;66.30;;;;;;4975236;28;20546;-77
2023/06/11 16:02:29;;;;;;;7.85;5.55;;;30.80;66.00;;;;;;4975120;28;20105;-79
2023/06/11 16:04:55;;;;;;;9.43;5.38;;;30.80;65.90;;;;;;4975255;28;20414;-78
2023/06/11 16:07:22;;;;;;;8.52;5.45;;;30.80;65.80;;;;;;4975252;28;20066;-77
2023/06/11 16:09:47;;;;;;;10.27;6.03;;;30.80;65.80;;;;;;4975401;28;20079;-78
2023/06/11 16:12:13;;;;;;;11.20;5.90;;;30.60;65.60;;;;;;4977015;28;20066;-77
2023/06/11 16:14:39;;;;;;;11.25;6.07;;;30.30;65.30;;;;;;4975173;28;20046;-78
2023/06/11 16:17:05;;;;;;;8.15;5.25;;;30.00;65.30;;;;;;4976780;28;20579;-78
2023/06/11 16:19:30;;;;;;;8.80;5.55;;;29.80;66.00;;;;;;4976390;28;20090;-77
2023/06/11 16:21:56;;;;;;;8.60;5.55;;;29.60;66.30;;;;;;4978904;28;20046;-78
2023/06/11 16:24:22;;;;;;;11.70;5.43;;;29.40;66.70;;;;;;4976446;28;20207;-77
2023/06/11 16:26:47;;;;;;;10.63;5.88;;;29.50;66.50;;;;;;4981623;28;20050;-74
2023/06/11 16:29:14;;;;;;;16.30;6.35;;;29.60;67.20;;;;;;4985195;28;20045;-76
2023/06/11 16:31:39;;;;;;;8.15;5.45;;;29.70;67.60;;;;;;4979823;28;20046;-78
2023/06/11 16:34:05;;;;;;;8.75;5.30;;;29.80;67.70;;;;;;4977474;28;20535;-77
2023/06/11 16:36:31;;;;;;;10.45;6.07;;;29.90;67.00;;;;;;4975374;28;20038;-78
2023/06/11 16:38:58;;;;;;;8.35;5.88;;;29.90;66.60;;;;;;4975199;28;20066;-79